createdAt,value
2023-02-07T00:00:56.180Z,-0.30
2023-02-07T00:03:22.990Z,-0.30
2023-02-07T00:05:49.852Z,-0.30
2023-02-07T00:08:16.824Z,-0.30
2023-02-07T00:10:43.805Z,-0.30
2023-02-07T00:13:10.612Z,-0.20
2023-02-07T00:15:37.651Z,-0.20
2023-02-07T00:18:04.612Z,-0.20
2023-02-07T00:20:31.395Z,-0.20
2023-02-07T00:22:58.485Z,-0.30
2023-02-07T00:25:25.270Z,-0.30
2023-02-07T00:27:52.160Z,-0.30
2023-02-07T00:30:19.266Z,-0.30
2023-02-07T00:32:46.087Z,-0.40
2023-02-07T00:35:12.950Z,-0.40
2023-02-07T00:37:39.792Z,-0.50
2023-02-07T00:40:06.945Z,-0.50
2023-02-07T00:42:33.841Z,-0.50
2023-02-07T00:45:00.667Z,-0.50
2023-02-07T00:47:27.488Z,-0.60
2023-02-07T00:49:54.478Z,-0.60
2023-02-07T00:52:21.322Z,-0.60
2023-02-07T00:54:48.426Z,-0.60
2023-02-07T00:57:15.197Z,-0.70
2023-02-07T00:59:42.005Z,-0.70
2023-02-07T01:02:08.876Z,-0.80
2023-02-07T01:04:35.760Z,-0.80
2023-02-07T01:07:02.892Z,-0.90
2023-02-07T01:09:29.917Z,-0.90
2023-02-07T01:11:56.715Z,-0.90
2023-02-07T01:14:25.342Z,-1.00
2023-02-07T01:16:52.189Z,-1.00
2023-02-07T01:19:19.273Z,-1.00
2023-02-07T01:21:46.113Z,-1.10
2023-02-07T01:24:12.986Z,-1.20
2023-02-07T01:26:40.434Z,-1.20
2023-02-07T01:29:07.986Z,-1.20
2023-02-07T01:31:35.539Z,-1.30
2023-02-07T01:34:05.276Z,-1.30
2023-02-07T01:36:32.601Z,-1.40
2023-02-07T01:38:59.408Z,-1.40
2023-02-07T01:41:27.400Z,-1.40
2023-02-07T01:44:02.390Z,-1.50
2023-02-07T01:46:31.030Z,-1.50
2023-02-07T01:49:02.245Z,-1.50
2023-02-07T01:51:31.493Z,-1.50
2023-02-07T01:54:02.844Z,-1.60
2023-02-07T01:56:32.217Z,-1.60
2023-02-07T01:59:04.234Z,-1.60
2023-02-07T02:01:31.126Z,-1.70
2023-02-07T02:03:58.168Z,-1.70
2023-02-07T02:06:29.179Z,-1.70
2023-02-07T02:08:58.398Z,-1.70
2023-02-07T02:12:05.400Z,-1.60
2023-02-07T02:14:48.438Z,-1.70
2023-02-07T02:17:33.406Z,-1.70
2023-02-07T02:20:24.732Z,-1.80
2023-02-07T02:23:06.601Z,-1.90
2023-02-07T02:25:54.862Z,-1.90
2023-02-07T02:28:59.131Z,-1.90
2023-02-07T02:31:44.697Z,-1.90
2023-02-07T02:34:33.611Z,-2.00
2023-02-07T02:37:23.096Z,-2.00
2023-02-07T02:39:59.525Z,-2.10
2023-02-07T02:42:39.553Z,-2.20
2023-02-07T02:45:20.642Z,-2.20
2023-02-07T02:47:49.590Z,-2.20
2023-02-07T02:50:22.501Z,-2.20
2023-02-07T02:52:51.197Z,-2.30
2023-02-07T02:55:54.611Z,-2.20
2023-02-07T02:58:40.608Z,-2.20
2023-02-07T03:01:13.104Z,-2.20
2023-02-07T03:04:08.834Z,-2.30
2023-02-07T03:06:50.680Z,-2.30
2023-02-07T03:09:35.980Z,-2.30
2023-02-07T03:12:29.895Z,-2.30
2023-02-07T03:15:12.586Z,-2.40
2023-02-07T03:17:51.905Z,-2.50
2023-02-07T03:20:42.265Z,-2.50
2023-02-07T03:23:11.316Z,-2.50
2023-02-07T03:25:41.166Z,-2.60
2023-02-07T03:28:10.417Z,-2.60
2023-02-07T03:30:39.794Z,-2.60
2023-02-07T03:33:11.618Z,-2.60
2023-02-07T03:35:47.230Z,-2.60
2023-02-07T03:38:14.297Z,-2.60
2023-02-07T03:40:51.465Z,-2.60
2023-02-07T03:43:26.918Z,-2.60
2023-02-07T03:45:53.980Z,-2.60
2023-02-07T03:48:20.745Z,-2.60
2023-02-07T03:50:49.722Z,-2.60
2023-02-07T03:53:16.510Z,-2.60
2023-02-07T03:55:43.368Z,-2.70
2023-02-07T03:58:10.301Z,-2.70
2023-02-07T04:00:37.225Z,-2.70
2023-02-07T04:03:04.771Z,-2.80
2023-02-07T04:05:31.519Z,-2.80
2023-02-07T04:07:58.275Z,-2.80
2023-02-07T04:10:25.068Z,-2.80
2023-02-07T04:12:52.040Z,-2.80
2023-02-07T04:15:19.126Z,-2.80
2023-02-07T04:17:45.903Z,-2.80
2023-02-07T04:20:13.252Z,-2.90
2023-02-07T04:22:40.084Z,-2.90
2023-02-07T04:25:07.138Z,-2.90
2023-02-07T04:27:33.912Z,-3.00
2023-02-07T04:30:00.691Z,-3.00
2023-02-07T04:32:27.598Z,-3.00
2023-02-07T04:34:54.427Z,-3.00
2023-02-07T04:37:21.238Z,-3.10
2023-02-07T04:39:48.069Z,-3.10
2023-02-07T04:42:14.908Z,-3.10
2023-02-07T04:44:41.677Z,-3.10
2023-02-07T04:47:08.471Z,-3.10
2023-02-07T04:49:35.350Z,-3.10
2023-02-07T04:52:02.280Z,-3.10
2023-02-07T04:54:29.047Z,-3.00
2023-02-07T04:56:55.888Z,-3.00
2023-02-07T04:59:22.772Z,-3.10
2023-02-07T05:01:49.628Z,-3.10
2023-02-07T05:04:16.458Z,-3.20
2023-02-07T05:06:43.290Z,-3.20
2023-02-07T05:09:10.056Z,-3.20
2023-02-07T05:11:36.916Z,-3.20
2023-02-07T05:14:03.743Z,-3.10
2023-02-07T05:16:30.605Z,-3.10
2023-02-07T05:18:57.389Z,-3.10
2023-02-07T05:21:24.135Z,-3.10
2023-02-07T05:23:50.926Z,-3.10
2023-02-07T05:26:17.770Z,-3.00
2023-02-07T05:28:44.626Z,-2.90
2023-02-07T05:31:11.533Z,-2.80
2023-02-07T05:33:38.382Z,-2.70
2023-02-07T05:36:05.601Z,-2.60
2023-02-07T05:38:32.453Z,-2.60
2023-02-07T05:40:59.732Z,-2.50
2023-02-07T05:43:26.615Z,-2.40
2023-02-07T05:45:53.417Z,-2.40
2023-02-07T05:48:20.265Z,-2.40
2023-02-07T05:50:47.548Z,-2.30
2023-02-07T05:53:14.323Z,-2.30
2023-02-07T05:55:41.429Z,-2.40
2023-02-07T05:58:08.330Z,-2.40
2023-02-07T06:00:35.201Z,-2.40
2023-02-07T06:03:02.045Z,-2.40
2023-02-07T06:05:31.643Z,-2.50
2023-02-07T06:07:58.811Z,-2.50
2023-02-07T06:10:25.695Z,-2.50
2023-02-07T06:12:52.517Z,-2.60
2023-02-07T06:15:19.383Z,-2.60
2023-02-07T06:17:46.729Z,-2.60
2023-02-07T06:20:13.646Z,-2.60
2023-02-07T06:22:40.476Z,-2.70
2023-02-07T06:25:11.798Z,-2.70
2023-02-07T06:27:40.380Z,-2.70
2023-02-07T06:30:09.016Z,-2.70
2023-02-07T06:32:35.782Z,-2.80
2023-02-07T06:35:02.782Z,-2.80
2023-02-07T06:37:29.534Z,-2.80
2023-02-07T06:39:56.390Z,-3.00
2023-02-07T06:42:23.208Z,-3.00
2023-02-07T06:44:50.175Z,-3.00
2023-02-07T06:47:17.050Z,-3.00
2023-02-07T06:49:43.792Z,-3.00
2023-02-07T06:52:10.561Z,-3.00
2023-02-07T06:54:37.529Z,-3.00
2023-02-07T06:57:04.464Z,-3.00
2023-02-07T06:59:31.697Z,-3.10
2023-02-07T07:02:00.460Z,-3.10
2023-02-07T07:04:27.682Z,-3.10
2023-02-07T07:06:54.580Z,-3.00
2023-02-07T07:09:21.389Z,-3.10
2023-02-07T07:11:48.162Z,-3.10
2023-02-07T07:14:14.972Z,-3.10
2023-02-07T07:16:41.870Z,-3.20
2023-02-07T07:19:08.793Z,-3.30
2023-02-07T07:21:36.006Z,-3.30
2023-02-07T07:24:02.915Z,-3.30
2023-02-07T07:26:39.523Z,-3.30
2023-02-07T07:29:13.817Z,-3.30
2023-02-07T07:31:40.662Z,-3.40
2023-02-07T07:34:07.469Z,-3.40
2023-02-07T07:36:34.320Z,-3.40
2023-02-07T07:39:01.214Z,-3.40
2023-02-07T07:41:28.020Z,-3.40
2023-02-07T07:43:55.164Z,-3.40
2023-02-07T07:46:22.111Z,-3.30
2023-02-07T07:48:48.941Z,-3.30
2023-02-07T07:51:15.744Z,-3.30
2023-02-07T07:53:42.529Z,-3.20
2023-02-07T07:56:09.351Z,-3.20
2023-02-07T07:58:36.254Z,-3.20
2023-02-07T08:01:03.140Z,-3.20
2023-02-07T08:03:30.029Z,-3.20
2023-02-07T08:05:56.827Z,-3.20
2023-02-07T08:08:23.645Z,-3.10
2023-02-07T08:10:50.511Z,-3.10
2023-02-07T08:13:17.839Z,-3.00
2023-02-07T08:15:44.635Z,-3.00
2023-02-07T08:18:11.456Z,-2.90
2023-02-07T08:20:38.614Z,-2.90
2023-02-07T08:23:05.617Z,-2.80
2023-02-07T08:25:32.446Z,-2.80
2023-02-07T08:27:59.354Z,-2.70
2023-02-07T08:30:26.638Z,-2.70
2023-02-07T08:32:55.299Z,-2.60
2023-02-07T08:35:22.211Z,-2.50
2023-02-07T08:37:50.099Z,-2.50
2023-02-07T08:40:17.265Z,-2.40
2023-02-07T08:42:44.076Z,-2.40
2023-02-07T08:45:11.591Z,-2.20
2023-02-07T08:47:38.293Z,-2.10
2023-02-07T08:50:06.064Z,-2.00
2023-02-07T08:52:32.872Z,-1.90
2023-02-07T08:54:59.615Z,-1.80
2023-02-07T08:57:26.940Z,-1.70
2023-02-07T08:59:54.120Z,-1.60
2023-02-07T09:02:21.017Z,-1.50
2023-02-07T09:04:47.964Z,-1.50
2023-02-07T09:07:15.041Z,-1.40
2023-02-07T09:09:41.893Z,-1.30
2023-02-07T09:12:09.668Z,-1.20
2023-02-07T09:14:37.088Z,-1.10
2023-02-07T09:17:03.924Z,-1.00
2023-02-07T09:19:31.185Z,-0.90
2023-02-07T09:21:58.177Z,-0.90
2023-02-07T09:24:25.005Z,-0.80
2023-02-07T09:26:51.818Z,-0.80
2023-02-07T09:29:19.029Z,-0.70
2023-02-07T09:31:45.960Z,-0.60
2023-02-07T09:34:12.846Z,-0.60
2023-02-07T09:36:39.807Z,-0.50
2023-02-07T09:39:07.236Z,-0.50
2023-02-07T09:42:25.447Z,-0.40
2023-02-07T09:45:07.438Z,-0.30
2023-02-07T09:47:38.311Z,-0.30
2023-02-07T09:50:22.499Z,-0.20
2023-02-07T09:52:54.247Z,-0.10
2023-02-07T09:55:26.724Z,-0.10
2023-02-07T09:58:02.472Z,0.00
2023-02-07T10:00:37.858Z,0.00
2023-02-07T10:03:16.753Z,0.20
2023-02-07T10:05:51.753Z,0.20
2023-02-07T10:08:19.704Z,0.30
2023-02-07T10:11:01.957Z,0.40
2023-02-07T10:13:50.391Z,0.40
2023-02-07T10:16:48.497Z,0.50
2023-02-07T10:19:35.989Z,0.60
2023-02-07T10:22:26.920Z,0.80
2023-02-07T10:25:09.552Z,0.90
2023-02-07T10:27:57.197Z,1.00
2023-02-07T10:30:30.226Z,1.00
2023-02-07T10:33:10.439Z,1.00
2023-02-07T10:35:38.433Z,1.00
2023-02-07T10:38:17.155Z,1.00
2023-02-07T10:41:04.017Z,1.00
2023-02-07T10:43:35.098Z,1.00
2023-02-07T10:46:22.815Z,1.10
2023-02-07T10:48:49.883Z,1.10
2023-02-07T10:51:22.380Z,1.20
2023-02-07T10:54:07.641Z,1.30
2023-02-07T10:56:41.992Z,1.60
2023-02-07T10:59:40.275Z,2.10
2023-02-07T11:02:29.296Z,2.60
2023-02-07T11:04:58.070Z,3.10
2023-02-07T11:07:25.562Z,3.60
2023-02-07T11:10:09.545Z,4.10
2023-02-07T11:12:49.599Z,4.40
2023-02-07T11:15:19.793Z,4.40
2023-02-07T11:17:57.084Z,4.40
2023-02-07T11:20:41.340Z,4.10
2023-02-07T11:23:15.255Z,3.90
2023-02-07T11:25:45.785Z,3.70
2023-02-07T11:28:25.994Z,3.30
2023-02-07T11:30:58.680Z,3.00
2023-02-07T11:33:28.144Z,2.90
2023-02-07T11:36:06.066Z,2.70
2023-02-07T11:38:39.624Z,2.60
2023-02-07T11:41:07.743Z,2.60
2023-02-07T11:43:35.985Z,2.60
2023-02-07T11:46:10.397Z,2.70
2023-02-07T11:48:40.143Z,2.80
2023-02-07T11:51:10.009Z,2.70
2023-02-07T11:53:41.231Z,2.70
2023-02-07T11:56:25.576Z,2.80
2023-02-07T11:58:54.623Z,2.80
2023-02-07T12:01:33.463Z,2.80
2023-02-07T12:04:13.439Z,2.80
2023-02-07T12:07:03.574Z,2.80
2023-02-07T12:09:46.434Z,2.80
2023-02-07T12:12:19.746Z,2.80
2023-02-07T12:15:00.229Z,2.90
2023-02-07T12:17:39.020Z,3.00
2023-02-07T12:20:11.933Z,3.00
2023-02-07T12:22:57.073Z,3.00
2023-02-07T12:25:33.339Z,3.10
2023-02-07T12:28:13.311Z,3.10
2023-02-07T12:30:45.247Z,3.10
2023-02-07T12:33:42.701Z,3.10
2023-02-07T12:36:35.908Z,3.20
2023-02-07T12:39:14.914Z,3.30
2023-02-07T12:41:48.369Z,3.30
2023-02-07T12:44:24.487Z,3.30
2023-02-07T12:47:02.282Z,3.30
2023-02-07T12:49:35.074Z,3.20
2023-02-07T12:52:22.859Z,3.30
2023-02-07T12:55:18.174Z,3.30
2023-02-07T12:58:27.543Z,3.30
2023-02-07T13:01:14.863Z,3.30
2023-02-07T13:04:07.097Z,3.30
2023-02-07T13:07:18.312Z,3.30
2023-02-07T13:10:05.408Z,3.30
2023-02-07T13:12:46.478Z,3.40
2023-02-07T13:15:27.214Z,3.40
2023-02-07T13:18:03.538Z,3.50
2023-02-07T13:20:45.378Z,3.40
2023-02-07T13:23:20.421Z,3.50
2023-02-07T13:25:53.202Z,3.60
2023-02-07T13:28:30.290Z,3.70
2023-02-07T13:30:59.974Z,3.70
2023-02-07T13:33:32.755Z,3.70
2023-02-07T13:36:11.402Z,3.60
2023-02-07T13:38:57.537Z,3.70
2023-02-07T13:41:33.914Z,3.70
2023-02-07T13:44:10.107Z,3.70
2023-02-07T13:46:55.710Z,3.70
2023-02-07T13:49:34.758Z,3.70
2023-02-07T13:52:18.128Z,3.80
2023-02-07T13:54:52.773Z,3.80
2023-02-07T13:58:02.351Z,3.90
2023-02-07T14:00:32.158Z,4.00
2023-02-07T14:03:06.536Z,3.90
2023-02-07T14:05:38.895Z,3.80
2023-02-07T14:08:17.855Z,3.80
2023-02-07T14:10:49.553Z,3.90
2023-02-07T14:13:34.821Z,3.90
2023-02-07T14:16:12.114Z,3.90
2023-02-07T14:22:58.602Z,3.90
2023-02-07T14:25:31.484Z,4.00
2023-02-07T14:28:04.107Z,4.00
2023-02-07T14:30:55.959Z,4.10
2023-02-07T14:33:32.718Z,4.10
2023-02-07T14:36:13.130Z,4.10
2023-02-07T14:39:00.131Z,4.20
2023-02-07T14:41:30.428Z,4.20
2023-02-07T14:44:09.489Z,4.20
2023-02-07T14:46:38.146Z,4.20
2023-02-07T14:49:22.491Z,4.30
2023-02-07T14:51:53.592Z,4.30
2023-02-07T14:54:43.743Z,4.30
2023-02-07T14:57:13.475Z,4.30
2023-02-07T14:59:58.831Z,4.30
2023-02-07T15:02:29.440Z,4.30
2023-02-07T15:04:56.482Z,4.30
2023-02-07T15:07:23.664Z,4.30
2023-02-07T15:09:50.468Z,4.40
2023-02-07T15:12:27.555Z,4.40
2023-02-07T15:14:56.842Z,4.30
2023-02-07T15:17:30.980Z,4.30
2023-02-07T15:20:06.690Z,4.30
2023-02-07T15:22:33.486Z,4.30
2023-02-07T15:25:01.301Z,4.30
2023-02-07T15:27:29.504Z,4.30
2023-02-07T15:30:02.478Z,4.20
2023-02-07T15:32:34.570Z,4.10
2023-02-07T15:35:18.719Z,4.10
2023-02-07T15:37:49.411Z,4.00
2023-02-07T15:40:18.975Z,4.00
2023-02-07T15:42:57.133Z,3.90
2023-02-07T15:45:29.375Z,3.90
2023-02-07T15:48:01.433Z,3.90
2023-02-07T15:50:31.275Z,3.90
2023-02-07T15:53:00.027Z,3.90
2023-02-07T15:55:37.600Z,3.90
2023-02-07T15:58:05.775Z,3.90
2023-02-07T16:00:40.034Z,3.80
2023-02-07T16:03:14.754Z,3.80
2023-02-07T16:05:41.751Z,3.80
2023-02-07T16:08:48.942Z,3.60
2023-02-07T16:11:27.780Z,3.60
2023-02-07T16:14:22.015Z,3.50
2023-02-07T16:16:50.349Z,3.40
2023-02-07T16:19:27.943Z,3.20
2023-02-07T16:22:07.306Z,3.10
2023-02-07T16:24:37.162Z,3.00
2023-02-07T16:27:04.864Z,2.90
2023-02-07T16:29:32.893Z,2.80
2023-02-07T16:31:59.901Z,2.70
2023-02-07T16:34:26.858Z,2.60
2023-02-07T16:36:55.240Z,2.50
2023-02-07T16:39:25.460Z,2.40
2023-02-07T16:41:56.541Z,2.20
2023-02-07T16:44:25.413Z,2.10
2023-02-07T16:46:52.481Z,2.10
2023-02-07T16:49:24.801Z,2.00
2023-02-07T16:51:51.928Z,1.90
2023-02-07T16:54:19.528Z,1.90
2023-02-07T16:56:49.972Z,1.90
2023-02-07T16:59:19.315Z,1.80
2023-02-07T17:01:46.697Z,1.70
2023-02-07T17:04:14.133Z,1.60
2023-02-07T17:06:42.827Z,1.40
2023-02-07T17:09:17.693Z,1.30
2023-02-07T17:11:44.633Z,1.30
2023-02-07T17:14:11.449Z,1.20
2023-02-07T17:16:38.548Z,1.00
2023-02-07T17:19:34.560Z,1.00
2023-02-07T17:22:01.435Z,0.90
2023-02-07T17:24:28.279Z,0.80
2023-02-07T17:26:56.306Z,0.80
2023-02-07T17:29:23.170Z,0.70
2023-02-07T17:31:50.768Z,0.70
2023-02-07T17:34:17.672Z,0.60
2023-02-07T17:36:48.004Z,0.60
2023-02-07T17:39:15.931Z,0.50
2023-02-07T17:41:42.780Z,0.50
2023-02-07T17:44:09.548Z,0.40
2023-02-07T17:46:36.434Z,0.30
2023-02-07T17:49:03.622Z,0.30
2023-02-07T17:51:30.438Z,0.30
2023-02-07T17:53:57.426Z,0.30
2023-02-07T17:56:29.856Z,0.30
2023-02-07T17:59:00.816Z,0.20
2023-02-07T18:01:28.135Z,0.20
2023-02-07T18:03:55.970Z,0.20
2023-02-07T18:06:25.190Z,0.10
2023-02-07T18:08:52.454Z,0.10
2023-02-07T18:11:19.588Z,0.00
2023-02-07T18:13:47.700Z,0.00
2023-02-07T18:16:22.792Z,-0.10
2023-02-07T18:19:16.733Z,-0.10
2023-02-07T18:21:44.683Z,-0.10
2023-02-07T18:24:11.605Z,-0.20
2023-02-07T18:26:38.376Z,-0.20
2023-02-07T18:29:05.202Z,-0.20
2023-02-07T18:31:31.955Z,-0.30
2023-02-07T18:33:58.684Z,-0.30
2023-02-07T18:36:26.620Z,-0.30
2023-02-07T18:38:53.421Z,-0.40
2023-02-07T18:41:23.433Z,-0.50
2023-02-07T18:43:50.727Z,-0.50
2023-02-07T18:46:20.248Z,-0.60
2023-02-07T18:48:50.231Z,-0.70
2023-02-07T18:51:19.289Z,-0.70
2023-02-07T18:53:46.199Z,-0.70
2023-02-07T18:56:16.616Z,-0.70
2023-02-07T18:58:46.563Z,-0.80
2023-02-07T19:01:18.844Z,-0.80
2023-02-07T19:03:47.690Z,-0.80
2023-02-07T19:06:14.919Z,-0.90
2023-02-07T19:08:41.733Z,-0.90
2023-02-07T19:11:08.696Z,-1.00
2023-02-07T19:13:36.466Z,-1.00
2023-02-07T19:16:06.431Z,-1.00
2023-02-07T19:18:33.307Z,-1.00
2023-02-07T19:21:09.319Z,-1.10
2023-02-07T19:23:36.897Z,-1.00
2023-02-07T19:26:03.995Z,-1.10
2023-02-07T19:28:31.900Z,-1.20
2023-02-07T19:30:58.866Z,-1.10
2023-02-07T19:33:25.813Z,-1.20
2023-02-07T19:35:52.581Z,-1.20
2023-02-07T19:38:19.309Z,-1.20
2023-02-07T19:40:54.313Z,-1.30
2023-02-07T19:43:21.046Z,-1.30
2023-02-07T19:45:48.590Z,-1.30
2023-02-07T19:48:15.287Z,-1.40
2023-02-07T19:50:42.261Z,-1.40
2023-02-07T19:53:09.145Z,-1.50
2023-02-07T19:55:39.030Z,-1.50
2023-02-07T19:58:06.026Z,-1.50
2023-02-07T20:00:32.873Z,-1.50
2023-02-07T20:02:59.976Z,-1.50
2023-02-07T20:05:27.306Z,-1.50
2023-02-07T20:07:54.785Z,-1.60
2023-02-07T20:10:21.526Z,-1.60
2023-02-07T20:12:48.865Z,-1.60
2023-02-07T20:15:15.706Z,-1.60
2023-02-07T20:17:42.906Z,-1.60
2023-02-07T20:20:10.108Z,-1.60
2023-02-07T20:22:36.887Z,-1.60
2023-02-07T20:25:03.898Z,-1.70
2023-02-07T20:27:30.643Z,-1.70
2023-02-07T20:29:57.537Z,-1.70
2023-02-07T20:32:24.379Z,-1.80
2023-02-07T20:34:51.133Z,-1.80
2023-02-07T20:37:17.891Z,-1.90
2023-02-07T20:39:44.631Z,-1.90
2023-02-07T20:42:11.558Z,-1.90
2023-02-07T20:44:38.300Z,-2.00
2023-02-07T20:47:05.141Z,-2.00
2023-02-07T20:49:32.317Z,-2.00
2023-02-07T20:51:59.672Z,-2.00
2023-02-07T20:54:28.719Z,-2.00
2023-02-07T20:56:56.662Z,-2.00
2023-02-07T20:59:26.919Z,-2.00
2023-02-07T21:01:54.474Z,-2.00
2023-02-07T21:04:21.553Z,-2.10
2023-02-07T21:06:48.353Z,-2.20
2023-02-07T21:09:16.186Z,-2.20
2023-02-07T21:11:46.606Z,-2.20
2023-02-07T21:14:16.409Z,-2.20
2023-02-07T21:16:43.849Z,-2.20
2023-02-07T21:19:10.660Z,-2.20
2023-02-07T21:21:38.288Z,-2.20
2023-02-07T21:24:05.338Z,-2.30
2023-02-07T21:26:32.329Z,-2.20
2023-02-07T21:29:00.969Z,-2.20
2023-02-07T21:31:29.529Z,-2.20
2023-02-07T21:33:56.786Z,-2.30
2023-02-07T21:36:29.126Z,-2.30
2023-02-07T21:38:59.171Z,-2.30
2023-02-07T21:41:27.879Z,-2.40
2023-02-07T21:43:55.646Z,-2.30
2023-02-07T21:49:10.521Z,-2.40
2023-02-07T21:51:37.315Z,-2.50
2023-02-07T21:54:07.303Z,-2.50
2023-02-07T21:56:37.053Z,-2.50
2023-02-07T21:59:11.750Z,-2.50
2023-02-07T22:01:39.104Z,-2.50
2023-02-07T22:04:10.221Z,-2.50
2023-02-07T22:06:38.408Z,-2.60
2023-02-07T22:09:05.399Z,-2.60
2023-02-07T22:11:34.602Z,-2.60
2023-02-07T22:14:02.638Z,-2.60
2023-02-07T22:21:25.803Z,-2.60
2023-02-07T22:23:54.209Z,-2.70
2023-02-07T22:26:22.407Z,-2.70
2023-02-07T22:28:50.084Z,-2.70
2023-02-07T22:31:28.362Z,-2.70
2023-02-07T22:33:58.258Z,-2.70
2023-02-07T22:36:27.730Z,-2.80
2023-02-07T22:38:54.963Z,-2.80
2023-02-07T22:41:22.250Z,-2.80
2023-02-07T22:43:49.770Z,-2.80
2023-02-07T22:46:17.587Z,-2.80
2023-02-07T22:48:45.075Z,-2.80
2023-02-07T22:51:13.229Z,-2.80
2023-02-07T22:53:40.545Z,-2.80
2023-02-07T22:56:08.002Z,-2.80
2023-02-07T22:58:34.745Z,-2.80
2023-02-07T23:01:01.768Z,-2.90
2023-02-07T23:03:28.628Z,-2.90
2023-02-07T23:05:55.470Z,-2.90
2023-02-07T23:08:22.229Z,-2.90
2023-02-07T23:10:49.132Z,-2.90
2023-02-07T23:13:16.821Z,-2.90
2023-02-07T23:15:47.671Z,-3.00
2023-02-07T23:18:15.739Z,-3.00
2023-02-07T23:20:44.502Z,-3.00
2023-02-07T23:23:12.606Z,-3.00
2023-02-07T23:25:46.090Z,-3.00
2023-02-07T23:28:13.781Z,-3.00
2023-02-07T23:30:41.687Z,-3.10
2023-02-07T23:33:10.231Z,-3.00
2023-02-07T23:35:37.248Z,-3.00
2023-02-07T23:38:04.417Z,-3.00
2023-02-07T23:40:31.431Z,-3.00
2023-02-07T23:42:58.254Z,-3.00
2023-02-07T23:45:25.412Z,-3.00
2023-02-07T23:47:52.165Z,-3.00
2023-02-07T23:50:18.960Z,-3.10
2023-02-07T23:52:45.845Z,-3.10
2023-02-07T23:55:13.088Z,-3.10
2023-02-07T23:57:39.849Z,-3.10
